sensor_id;sensor_type;location;lat;lon;timestamp;pressure;altitude;pressure_sealevel;temperature;humidity
30636;BME280;17400;52.392;9.750;2023-05-24T00:00:28;101532.31;;;11.16;97.04
30636;BME280;17400;52.392;9.750;2023-05-24T00:02:56;101542.91;;;11.26;95.89
30636;BME280;17400;52.392;9.750;2023-05-24T00:05:25;101535.94;;;11.31;95.60
30636;BME280;17400;52.392;9.750;2023-05-24T00:07:57;101541.25;;;11.25;95.93
30636;BME280;17400;52.392;9.750;2023-05-24T00:10:25;101536.91;;;11.15;96.08
30636;BME280;17400;52.392;9.750;2023-05-24T00:12:53;101536.22;;;11.13;97.10
30636;BME280;17400;52.392;9.750;2023-05-24T00:15:21;101537.44;;;11.11;97.18
30636;BME280;17400;52.392;9.750;2023-05-24T00:17:48;101543.16;;;11.16;96.45
30636;BME280;17400;52.392;9.750;2023-05-24T00:20:17;101545.06;;;11.07;97.11
30636;BME280;17400;52.392;9.750;2023-05-24T00:22:47;101537.63;;;11.09;97.43
30636;BME280;17400;52.392;9.750;2023-05-24T00:25:15;101532.19;;;11.09;97.79
30636;BME280;17400;52.392;9.750;2023-05-24T00:27:43;101538.31;;;11.03;97.93
30636;BME280;17400;52.392;9.750;2023-05-24T00:30:11;101544.13;;;11.00;98.24
30636;BME280;17400;52.392;9.750;2023-05-24T00:32:39;101536.38;;;10.97;98.49
30636;BME280;17400;52.392;9.750;2023-05-24T00:35:09;101533.69;;;10.89;98.81
30636;BME280;17400;52.392;9.750;2023-05-24T00:37:37;101532.66;;;10.90;99.40
30636;BME280;17400;52.392;9.750;2023-05-24T00:40:10;101536.13;;;10.83;99.62
30636;BME280;17400;52.392;9.750;2023-05-24T00:42:37;101534.22;;;10.84;100.00
30636;BME280;17400;52.392;9.750;2023-05-24T00:45:08;101536.75;;;10.86;100.00
30636;BME280;17400;52.392;9.750;2023-05-24T00:47:36;101538.06;;;10.66;100.00
30636;BME280;17400;52.392;9.750;2023-05-24T00:50:06;101533.47;;;10.67;100.00
30636;BME280;17400;52.392;9.750;2023-05-24T00:52:35;101534.59;;;10.81;100.00
30636;BME280;17400;52.392;9.750;2023-05-24T00:55:04;101533.09;;;10.78;100.00
30636;BME280;17400;52.392;9.750;2023-05-24T00:57:34;101528.75;;;10.61;100.00
30636;BME280;17400;52.392;9.750;2023-05-24T01:00:03;101531.19;;;10.56;100.00
30636;BME280;17400;52.392;9.750;2023-05-24T01:02:31;101532.34;;;10.61;100.00
30636;BME280;17400;52.392;9.750;2023-05-24T01:05:03;101525.34;;;10.67;100.00
30636;BME280;17400;52.392;9.750;2023-05-24T01:07:40;101519.63;;;10.62;100.00
30636;BME280;17400;52.392;9.750;2023-05-24T01:10:16;101521.31;;;10.63;100.00
30636;BME280;17400;52.392;9.750;2023-05-24T01:12:56;101521.56;;;10.53;100.00
30636;BME280;17400;52.392;9.750;2023-05-24T01:15:32;101523.06;;;10.56;100.00
30636;BME280;17400;52.392;9.750;2023-05-24T01:18:06;101525.72;;;10.64;100.00
30636;BME280;17400;52.392;9.750;2023-05-24T01:20:35;101517.47;;;10.57;100.00
30636;BME280;17400;52.392;9.750;2023-05-24T01:23:08;101511.91;;;10.50;100.00
30636;BME280;17400;52.392;9.750;2023-05-24T01:25:54;101507.59;;;10.64;100.00
30636;BME280;17400;52.392;9.750;2023-05-24T01:28:30;101511.50;;;10.62;100.00
30636;BME280;17400;52.392;9.750;2023-05-24T01:30:59;101508.63;;;10.63;100.00
30636;BME280;17400;52.392;9.750;2023-05-24T01:33:28;101512.66;;;10.67;100.00
30636;BME280;17400;52.392;9.750;2023-05-24T01:35:56;101516.72;;;10.72;100.00
30636;BME280;17400;52.392;9.750;2023-05-24T01:38:24;101500.63;;;10.70;100.00
30636;BME280;17400;52.392;9.750;2023-05-24T01:41:04;101507.53;;;10.73;100.00
30636;BME280;17400;52.392;9.750;2023-05-24T01:43:42;101506.41;;;10.67;100.00
30636;BME280;17400;52.392;9.750;2023-05-24T01:46:23;101513.38;;;10.61;100.00
30636;BME280;17400;52.392;9.750;2023-05-24T01:49:00;101503.69;;;10.67;100.00
30636;BME280;17400;52.392;9.750;2023-05-24T01:51:33;101504.25;;;10.62;100.00
30636;BME280;17400;52.392;9.750;2023-05-24T01:54:04;101500.69;;;10.62;100.00
30636;BME280;17400;52.392;9.750;2023-05-24T01:56:39;101496.28;;;10.61;100.00
30636;BME280;17400;52.392;9.750;2023-05-24T01:59:11;101495.25;;;10.62;100.00
30636;BME280;17400;52.392;9.750;2023-05-24T02:01:40;101491.47;;;10.71;100.00
30636;BME280;17400;52.392;9.750;2023-05-24T02:04:08;101490.28;;;10.74;100.00
30636;BME280;17400;52.392;9.750;2023-05-24T02:06:36;101487.56;;;10.74;100.00
30636;BME280;17400;52.392;9.750;2023-05-24T02:09:04;101483.53;;;10.70;100.00
30636;BME280;17400;52.392;9.750;2023-05-24T02:11:32;101482.34;;;10.72;100.00
30636;BME280;17400;52.392;9.750;2023-05-24T02:14:00;101483.28;;;10.79;100.00
30636;BME280;17400;52.392;9.750;2023-05-24T02:16:29;101475.84;;;10.81;100.00
30636;BME280;17400;52.392;9.750;2023-05-24T02:18:57;101475.72;;;10.75;100.00
30636;BME280;17400;52.392;9.750;2023-05-24T02:21:26;101476.88;;;10.80;100.00
30636;BME280;17400;52.392;9.750;2023-05-24T02:23:57;101473.50;;;10.78;100.00
30636;BME280;17400;52.392;9.750;2023-05-24T02:26:25;101478.13;;;10.70;100.00
30636;BME280;17400;52.392;9.750;2023-05-24T02:28:53;101476.91;;;10.72;100.00
30636;BME280;17400;52.392;9.750;2023-05-24T02:31:22;101472.00;;;10.76;100.00
30636;BME280;17400;52.392;9.750;2023-05-24T02:33:58;101471.44;;;10.80;100.00
30636;BME280;17400;52.392;9.750;2023-05-24T02:36:25;101471.91;;;10.61;100.00
30636;BME280;17400;52.392;9.750;2023-05-24T02:38:53;101471.44;;;10.57;100.00
30636;BME280;17400;52.392;9.750;2023-05-24T02:41:22;101471.06;;;10.60;100.00
30636;BME280;17400;52.392;9.750;2023-05-24T02:43:49;101463.31;;;10.57;100.00
30636;BME280;17400;52.392;9.750;2023-05-24T02:46:23;101462.47;;;10.57;100.00
30636;BME280;17400;52.392;9.750;2023-05-24T02:48:51;101459.31;;;10.45;100.00
30636;BME280;17400;52.392;9.750;2023-05-24T02:51:20;101464.53;;;10.46;100.00
30636;BME280;17400;52.392;9.750;2023-05-24T02:53:48;101465.91;;;10.50;100.00
30636;BME280;17400;52.392;9.750;2023-05-24T02:56:16;101461.63;;;10.56;100.00
30636;BME280;17400;52.392;9.750;2023-05-24T02:58:44;101473.28;;;10.57;100.00
30636;BME280;17400;52.392;9.750;2023-05-24T03:01:12;101470.88;;;10.62;100.00
30636;BME280;17400;52.392;9.750;2023-05-24T03:03:40;101476.50;;;10.60;100.00
30636;BME280;17400;52.392;9.750;2023-05-24T03:06:08;101473.41;;;10.63;100.00
30636;BME280;17400;52.392;9.750;2023-05-24T03:08:37;101467.88;;;10.57;100.00
30636;BME280;17400;52.392;9.750;2023-05-24T03:11:04;101476.84;;;10.57;100.00
30636;BME280;17400;52.392;9.750;2023-05-24T03:13:32;101472.63;;;10.55;100.00
30636;BME280;17400;52.392;9.750;2023-05-24T03:16:00;101469.19;;;10.61;100.00
30636;BME280;17400;52.392;9.750;2023-05-24T03:18:28;101479.91;;;10.54;100.00
30636;BME280;17400;52.392;9.750;2023-05-24T03:20:56;101479.91;;;10.54;100.00
30636;BME280;17400;52.392;9.750;2023-05-24T03:23:24;101470.06;;;10.61;100.00
30636;BME280;17400;52.392;9.750;2023-05-24T03:25:53;101467.41;;;10.53;100.00
30636;BME280;17400;52.392;9.750;2023-05-24T03:28:21;101467.03;;;10.56;100.00
30636;BME280;17400;52.392;9.750;2023-05-24T03:30:49;101470.25;;;10.52;100.00
30636;BME280;17400;52.392;9.750;2023-05-24T03:33:16;101466.53;;;10.53;100.00
30636;BME280;17400;52.392;9.750;2023-05-24T03:35:44;101459.81;;;10.48;100.00
30636;BME280;17400;52.392;9.750;2023-05-24T03:38:12;101466.53;;;10.53;100.00
30636;BME280;17400;52.392;9.750;2023-05-24T03:40:40;101455.53;;;10.54;100.00
30636;BME280;17400;52.392;9.750;2023-05-24T03:43:09;101480.44;;;10.49;100.00
30636;BME280;17400;52.392;9.750;2023-05-24T03:45:37;101474.25;;;10.32;100.00
30636;BME280;17400;52.392;9.750;2023-05-24T03:48:06;101481.53;;;10.32;100.00
30636;BME280;17400;52.392;9.750;2023-05-24T03:50:33;101478.69;;;10.25;100.00
30636;BME280;17400;52.392;9.750;2023-05-24T03:53:01;101486.63;;;10.27;100.00
30636;BME280;17400;52.392;9.750;2023-05-24T03:55:29;101483.78;;;10.20;100.00
30636;BME280;17400;52.392;9.750;2023-05-24T03:58:00;101480.16;;;10.28;100.00
30636;BME280;17400;52.392;9.750;2023-05-24T04:00:29;101482.53;;;10.39;100.00
30636;BME280;17400;52.392;9.750;2023-05-24T04:02:57;101480.97;;;10.45;100.00
30636;BME280;17400;52.392;9.750;2023-05-24T04:05:25;101482.72;;;10.38;100.00
30636;BME280;17400;52.392;9.750;2023-05-24T04:07:55;101489.28;;;10.43;100.00
30636;BME280;17400;52.392;9.750;2023-05-24T04:10:23;101493.13;;;10.49;100.00
30636;BME280;17400;52.392;9.750;2023-05-24T04:12:50;101490.84;;;10.61;100.00
30636;BME280;17400;52.392;9.750;2023-05-24T04:15:18;101489.91;;;10.54;100.00
30636;BME280;17400;52.392;9.750;2023-05-24T04:17:48;101496.28;;;10.61;100.00
30636;BME280;17400;52.392;9.750;2023-05-24T04:20:20;101492.56;;;10.62;100.00
30636;BME280;17400;52.392;9.750;2023-05-24T04:22:49;101492.16;;;10.73;100.00
30636;BME280;17400;52.392;9.750;2023-05-24T04:25:17;101493.16;;;10.72;100.00
30636;BME280;17400;52.392;9.750;2023-05-24T04:27:45;101488.44;;;10.74;100.00
30636;BME280;17400;52.392;9.750;2023-05-24T04:30:14;101489.25;;;10.75;100.00
30636;BME280;17400;52.392;9.750;2023-05-24T04:32:43;101491.72;;;10.61;100.00
30636;BME280;17400;52.392;9.750;2023-05-24T04:35:12;101490.72;;;10.62;100.00
30636;BME280;17400;52.392;9.750;2023-05-24T04:37:41;101499.47;;;10.64;100.00
30636;BME280;17400;52.392;9.750;2023-05-24T04:40:11;101496.13;;;10.62;100.00
30636;BME280;17400;52.392;9.750;2023-05-24T04:42:38;101491.16;;;10.66;100.00
30636;BME280;17400;52.392;9.750;2023-05-24T04:45:07;101495.31;;;10.77;100.00
30636;BME280;17400;52.392;9.750;2023-05-24T04:47:38;101500.91;;;10.83;100.00
30636;BME280;17400;52.392;9.750;2023-05-24T04:50:06;101490.91;;;10.84;100.00
30636;BME280;17400;52.392;9.750;2023-05-24T04:52:36;101492.72;;;10.92;100.00
30636;BME280;17400;52.392;9.750;2023-05-24T04:55:05;101500.25;;;11.05;100.00
30636;BME280;17400;52.392;9.750;2023-05-24T04:57:33;101495.75;;;10.89;100.00
30636;BME280;17400;52.392;9.750;2023-05-24T05:00:03;101498.28;;;10.67;100.00
30636;BME280;17400;52.392;9.750;2023-05-24T05:02:33;101494.88;;;10.73;100.00
30636;BME280;17400;52.392;9.750;2023-05-24T05:05:02;101488.06;;;10.77;100.00
30636;BME280;17400;52.392;9.750;2023-05-24T05:07:29;101489.09;;;10.76;100.00
30636;BME280;17400;52.392;9.750;2023-05-24T05:10:01;101489.69;;;10.87;100.00
30636;BME280;17400;52.392;9.750;2023-05-24T05:12:28;101487.28;;;10.92;100.00
30636;BME280;17400;52.392;9.750;2023-05-24T05:14:56;101488.50;;;10.89;100.00
30636;BME280;17400;52.392;9.750;2023-05-24T05:17:24;101492.63;;;11.00;100.00
30636;BME280;17400;52.392;9.750;2023-05-24T05:19:52;101501.72;;;11.07;100.00
30636;BME280;17400;52.392;9.750;2023-05-24T05:22:20;101501.00;;;11.13;100.00
30636;BME280;17400;52.392;9.750;2023-05-24T05:24:47;101492.69;;;11.15;100.00
30636;BME280;17400;52.392;9.750;2023-05-24T05:27:16;101496.56;;;10.97;100.00
30636;BME280;17400;52.392;9.750;2023-05-24T05:29:44;101500.59;;;11.02;100.00
30636;BME280;17400;52.392;9.750;2023-05-24T05:32:13;101501.72;;;11.07;100.00
30636;BME280;17400;52.392;9.750;2023-05-24T05:34:41;101505.09;;;11.09;100.00
30636;BME280;17400;52.392;9.750;2023-05-24T05:37:12;101492.84;;;10.98;100.00
30636;BME280;17400;52.392;9.750;2023-05-24T05:39:39;101506.06;;;10.93;100.00
30636;BME280;17400;52.392;9.750;2023-05-24T05:42:07;101496.97;;;10.86;100.00
30636;BME280;17400;52.392;9.750;2023-05-24T05:44:39;101507.47;;;10.89;100.00
30636;BME280;17400;52.392;9.750;2023-05-24T05:47:06;101507.28;;;10.91;100.00
30636;BME280;17400;52.392;9.750;2023-05-24T05:49:35;101509.56;;;11.02;100.00
30636;BME280;17400;52.392;9.750;2023-05-24T05:52:03;101512.03;;;11.12;100.00
30636;BME280;17400;52.392;9.750;2023-05-24T05:54:31;101513.91;;;11.11;100.00
30636;BME280;17400;52.392;9.750;2023-05-24T05:56:59;101514.50;;;10.98;100.00
30636;BME280;17400;52.392;9.750;2023-05-24T05:59:28;101518.72;;;11.01;100.00
30636;BME280;17400;52.392;9.750;2023-05-24T06:01:57;101518.72;;;11.01;100.00
30636;BME280;17400;52.392;9.750;2023-05-24T06:04:25;101517.97;;;11.07;100.00
30636;BME280;17400;52.392;9.750;2023-05-24T06:06:53;101519.22;;;11.05;100.00
30636;BME280;17400;52.392;9.750;2023-05-24T06:09:20;101512.53;;;11.15;100.00
30636;BME280;17400;52.392;9.750;2023-05-24T06:11:48;101516.88;;;11.16;100.00
30636;BME280;17400;52.392;9.750;2023-05-24T06:14:16;101516.25;;;11.14;100.00
30636;BME280;17400;52.392;9.750;2023-05-24T06:16:45;101519.06;;;11.21;100.00
30636;BME280;17400;52.392;9.750;2023-05-24T06:19:14;101525.63;;;11.27;100.00
30636;BME280;17400;52.392;9.750;2023-05-24T06:21:43;101523.88;;;11.34;100.00
30636;BME280;17400;52.392;9.750;2023-05-24T06:24:14;101527.75;;;11.55;100.00
30636;BME280;17400;52.392;9.750;2023-05-24T06:26:46;101527.22;;;11.59;100.00
30636;BME280;17400;52.392;9.750;2023-05-24T06:29:14;101526.75;;;11.56;100.00
30636;BME280;17400;52.392;9.750;2023-05-24T06:31:42;101523.59;;;11.67;100.00
30636;BME280;17400;52.392;9.750;2023-05-24T06:34:09;101521.34;;;11.71;100.00
30636;BME280;17400;52.392;9.750;2023-05-24T06:36:39;101525.50;;;11.81;100.00
30636;BME280;17400;52.392;9.750;2023-05-24T06:39:08;101531.25;;;11.78;100.00
30636;BME280;17400;52.392;9.750;2023-05-24T06:41:39;101529.81;;;11.91;100.00
30636;BME280;17400;52.392;9.750;2023-05-24T06:44:07;101529.16;;;12.04;100.00
30636;BME280;17400;52.392;9.750;2023-05-24T06:46:35;101531.91;;;12.19;100.00
30636;BME280;17400;52.392;9.750;2023-05-24T06:49:03;101524.78;;;12.18;100.00
30636;BME280;17400;52.392;9.750;2023-05-24T06:51:31;101533.66;;;12.11;100.00
30636;BME280;17400;52.392;9.750;2023-05-24T06:54:01;101528.03;;;12.13;100.00
30636;BME280;17400;52.392;9.750;2023-05-24T06:56:29;101528.91;;;12.13;100.00
30636;BME280;17400;52.392;9.750;2023-05-24T06:58:57;101536.84;;;12.15;100.00
30636;BME280;17400;52.392;9.750;2023-05-24T07:01:25;101540.31;;;12.09;100.00
30636;BME280;17400;52.392;9.750;2023-05-24T07:03:53;101537.50;;;12.02;100.00
30636;BME280;17400;52.392;9.750;2023-05-24T07:06:20;101547.97;;;12.05;100.00
30636;BME280;17400;52.392;9.750;2023-05-24T07:08:48;101544.50;;;12.11;100.00
30636;BME280;17400;52.392;9.750;2023-05-24T07:11:17;101550.13;;;12.10;100.00
30636;BME280;17400;52.392;9.750;2023-05-24T07:13:45;101544.31;;;12.13;100.00
30636;BME280;17400;52.392;9.750;2023-05-24T07:16:13;101552.66;;;12.11;100.00
30636;BME280;17400;52.392;9.750;2023-05-24T07:18:41;101548.91;;;12.12;100.00
30636;BME280;17400;52.392;9.750;2023-05-24T07:21:09;101550.81;;;12.12;100.00
30636;BME280;17400;52.392;9.750;2023-05-24T07:23:37;101555.03;;;12.14;100.00
30636;BME280;17400;52.392;9.750;2023-05-24T07:26:05;101554.63;;;12.18;100.00
30636;BME280;17400;52.392;9.750;2023-05-24T07:28:34;101558.75;;;12.13;100.00
30636;BME280;17400;52.392;9.750;2023-05-24T07:31:03;101559.03;;;12.19;100.00
30636;BME280;17400;52.392;9.750;2023-05-24T07:33:31;101561.09;;;12.16;100.00
30636;BME280;17400;52.392;9.750;2023-05-24T07:35:59;101561.56;;;12.20;100.00
30636;BME280;17400;52.392;9.750;2023-05-24T07:38:28;101555.94;;;12.22;100.00
30636;BME280;17400;52.392;9.750;2023-05-24T07:40:58;101555.66;;;12.16;100.00
30636;BME280;17400;52.392;9.750;2023-05-24T07:43:27;101559.41;;;12.15;100.00
30636;BME280;17400;52.392;9.750;2023-05-24T07:45:57;101563.31;;;11.98;100.00
30636;BME280;17400;52.392;9.750;2023-05-24T07:48:25;101561.91;;;12.02;100.00
30636;BME280;17400;52.392;9.750;2023-05-24T07:50:52;101568.38;;;12.01;100.00
30636;BME280;17400;52.392;9.750;2023-05-24T07:53:20;101573.63;;;12.03;100.00
30636;BME280;17400;52.392;9.750;2023-05-24T07:55:48;101572.03;;;12.08;100.00
30636;BME280;17400;52.392;9.750;2023-05-24T07:58:17;101576.94;;;11.90;100.00
30636;BME280;17400;52.392;9.750;2023-05-24T08:00:45;101582.69;;;11.95;100.00
30636;BME280;17400;52.392;9.750;2023-05-24T08:03:14;101582.59;;;12.03;100.00
30636;BME280;17400;52.392;9.750;2023-05-24T08:05:43;101591.69;;;12.10;100.00
30636;BME280;17400;52.392;9.750;2023-05-24T08:08:11;101585.41;;;12.10;100.00
30636;BME280;17400;52.392;9.750;2023-05-24T08:10:39;101584.28;;;12.04;100.00
30636;BME280;17400;52.392;9.750;2023-05-24T08:13:07;101582.16;;;12.14;100.00
30636;BME280;17400;52.392;9.750;2023-05-24T08:15:35;101582.06;;;12.23;100.00
30636;BME280;17400;52.392;9.750;2023-05-24T08:18:03;101589.91;;;12.18;100.00
30636;BME280;17400;52.392;9.750;2023-05-24T08:20:32;101587.50;;;12.23;100.00
30636;BME280;17400;52.392;9.750;2023-05-24T08:23:02;101586.19;;;12.19;100.00
30636;BME280;17400;52.392;9.750;2023-05-24T08:25:30;101578.03;;;12.19;100.00
30636;BME280;17400;52.392;9.750;2023-05-24T08:27:58;101585.41;;;12.25;100.00
30636;BME280;17400;52.392;9.750;2023-05-24T08:30:26;101589.06;;;12.17;100.00
30636;BME280;17400;52.392;9.750;2023-05-24T08:32:54;101591.13;;;12.15;100.00
30636;BME280;17400;52.392;9.750;2023-05-24T08:35:23;101583.72;;;12.09;100.00
30636;BME280;17400;52.392;9.750;2023-05-24T08:37:52;101587.31;;;12.09;100.00
30636;BME280;17400;52.392;9.750;2023-05-24T08:40:20;101589.72;;;12.04;100.00
30636;BME280;17400;52.392;9.750;2023-05-24T08:42:49;101597.78;;;12.12;100.00
30636;BME280;17400;52.392;9.750;2023-05-24T08:45:20;101595.06;;;12.12;100.00
30636;BME280;17400;52.392;9.750;2023-05-24T08:47:49;101603.34;;;11.96;100.00
30636;BME280;17400;52.392;9.750;2023-05-24T08:50:18;101608.91;;;12.03;100.00
30636;BME280;17400;52.392;9.750;2023-05-24T08:52:46;101606.47;;;12.08;100.00
30636;BME280;17400;52.392;9.750;2023-05-24T08:55:16;101611.34;;;12.12;100.00
30636;BME280;17400;52.392;9.750;2023-05-24T08:57:45;101612.66;;;12.02;100.00
30636;BME280;17400;52.392;9.750;2023-05-24T09:00:14;101611.63;;;12.03;100.00
30636;BME280;17400;52.392;9.750;2023-05-24T09:02:42;101613.28;;;12.04;100.00
30636;BME280;17400;52.392;9.750;2023-05-24T09:05:13;101612.38;;;12.11;100.00
30636;BME280;17400;52.392;9.750;2023-05-24T09:07:45;101620.16;;;12.14;100.00
30636;BME280;17400;52.392;9.750;2023-05-24T09:10:13;101615.56;;;12.15;100.00
30636;BME280;17400;52.392;9.750;2023-05-24T09:12:46;101612.28;;;12.20;100.00
30636;BME280;17400;52.392;9.750;2023-05-24T09:15:15;101612.94;;;12.22;100.00
30636;BME280;17400;52.392;9.750;2023-05-24T09:17:43;101607.81;;;12.27;100.00
30636;BME280;17400;52.392;9.750;2023-05-24T09:20:12;101610.13;;;12.30;100.00
30636;BME280;17400;52.392;9.750;2023-05-24T09:22:41;101609.50;;;12.28;100.00
30636;BME280;17400;52.392;9.750;2023-05-24T09:25:12;101617.75;;;12.35;100.00
30636;BME280;17400;52.392;9.750;2023-05-24T09:27:45;101606.59;;;12.29;100.00
30636;BME280;17400;52.392;9.750;2023-05-24T09:30:15;101613.97;;;12.36;100.00
30636;BME280;17400;52.392;9.750;2023-05-24T09:32:53;101616.97;;;12.41;100.00
30636;BME280;17400;52.392;9.750;2023-05-24T09:35:23;101612.59;;;12.40;100.00
30636;BME280;17400;52.392;9.750;2023-05-24T09:37:55;101623.25;;;12.41;100.00
30636;BME280;17400;52.392;9.750;2023-05-24T09:40:26;101620.53;;;12.41;100.00
30636;BME280;17400;52.392;9.750;2023-05-24T09:43:06;101620.34;;;12.43;100.00
30636;BME280;17400;52.392;9.750;2023-05-24T09:45:40;101625.59;;;12.44;100.00
30636;BME280;17400;52.392;9.750;2023-05-24T09:48:13;101622.50;;;12.47;100.00
30636;BME280;17400;52.392;9.750;2023-05-24T09:50:42;101633.28;;;12.56;100.00
30636;BME280;17400;52.392;9.750;2023-05-24T09:53:15;101622.22;;;12.57;100.00
30636;BME280;17400;52.392;9.750;2023-05-24T09:55:44;101620.81;;;12.61;100.00
30636;BME280;17400;52.392;9.750;2023-05-24T09:58:15;101616.78;;;12.57;100.00
30636;BME280;17400;52.392;9.750;2023-05-24T10:00:43;101616.41;;;12.60;100.00
30636;BME280;17400;52.392;9.750;2023-05-24T10:03:12;101617.44;;;12.59;100.00
30636;BME280;17400;52.392;9.750;2023-05-24T10:05:43;101616.72;;;12.50;100.00
30636;BME280;17400;52.392;9.750;2023-05-24T10:08:12;101612.59;;;12.55;100.00
30636;BME280;17400;52.392;9.750;2023-05-24T10:10:40;101616.22;;;12.47;100.00
30636;BME280;17400;52.392;9.750;2023-05-24T10:13:09;101619.41;;;12.50;100.00
30636;BME280;17400;52.392;9.750;2023-05-24T10:15:41;101619.69;;;12.41;100.00
30636;BME280;17400;52.392;9.750;2023-05-24T10:18:09;101620.16;;;12.44;100.00
30636;BME280;17400;52.392;9.750;2023-05-24T10:20:39;101620.44;;;12.49;100.00
30636;BME280;17400;52.392;9.750;2023-05-24T10:23:09;101619.72;;;12.56;100.00
30636;BME280;17400;52.392;9.750;2023-05-24T10:25:40;101613.59;;;12.54;100.00
30636;BME280;17400;52.392;9.750;2023-05-24T10:28:11;101624.66;;;12.52;100.00
30636;BME280;17400;52.392;9.750;2023-05-24T10:30:47;101626.16;;;12.55;100.00
30636;BME280;17400;52.392;9.750;2023-05-24T10:33:20;101625.13;;;12.56;100.00
30636;BME280;17400;52.392;9.750;2023-05-24T10:35:49;101631.78;;;12.53;100.00
30636;BME280;17400;52.392;9.750;2023-05-24T10:38:20;101631.31;;;12.49;100.00
30636;BME280;17400;52.392;9.750;2023-05-24T10:40:49;101639.56;;;12.56;100.00
30636;BME280;17400;52.392;9.750;2023-05-24T10:43:20;101630.09;;;12.52;100.00
30636;BME280;17400;52.392;9.750;2023-05-24T10:45:49;101634.59;;;12.60;100.00
30636;BME280;17400;52.392;9.750;2023-05-24T10:48:34;101630.47;;;12.64;100.00
30636;BME280;17400;52.392;9.750;2023-05-24T10:51:37;101639.53;;;12.71;100.00
30636;BME280;17400;52.392;9.750;2023-05-24T10:54:13;101638.22;;;12.67;100.00
30636;BME280;17400;52.392;9.750;2023-05-24T10:56:46;101636.00;;;12.56;100.00
30636;BME280;17400;52.392;9.750;2023-05-24T10:59:22;101632.53;;;12.47;100.00
30636;BME280;17400;52.392;9.750;2023-05-24T11:01:56;101633.25;;;12.41;100.00
30636;BME280;17400;52.392;9.750;2023-05-24T11:04:32;101631.59;;;12.40;100.00
30636;BME280;17400;52.392;9.750;2023-05-24T11:07:01;101633.66;;;12.38;100.00
30636;BME280;17400;52.392;9.750;2023-05-24T11:09:30;101635.81;;;12.42;100.00
30636;BME280;17400;52.392;9.750;2023-05-24T11:12:01;101633.25;;;12.41;100.00
30636;BME280;17400;52.392;9.750;2023-05-24T11:14:35;101632.53;;;12.47;100.00
30636;BME280;17400;52.392;9.750;2023-05-24T11:17:06;101636.34;;;12.53;100.00
30636;BME280;17400;52.392;9.750;2023-05-24T11:19:35;101638.91;;;12.54;100.00
30636;BME280;17400;52.392;9.750;2023-05-24T11:22:06;101637.31;;;12.60;100.00
30636;BME280;17400;52.392;9.750;2023-05-24T11:24:39;101630.56;;;12.56;100.00
30636;BME280;17400;52.392;9.750;2023-05-24T11:27:10;101624.09;;;12.57;100.00
30636;BME280;17400;52.392;9.750;2023-05-24T11:29:42;101634.31;;;12.55;100.00
30636;BME280;17400;52.392;9.750;2023-05-24T11:32:15;101641.78;;;12.53;100.00
30636;BME280;17400;52.392;9.750;2023-05-24T11:34:46;101637.84;;;12.55;100.00
30636;BME280;17400;52.392;9.750;2023-05-24T11:37:15;101641.25;;;12.57;100.00
30636;BME280;17400;52.392;9.750;2023-05-24T11:39:50;101630.56;;;12.71;100.00
30636;BME280;17400;52.392;9.750;2023-05-24T11:42:20;101633.81;;;12.81;100.00
30636;BME280;17400;52.392;9.750;2023-05-24T11:44:48;101630.72;;;12.84;100.00
30636;BME280;17400;52.392;9.750;2023-05-24T11:47:19;101636.25;;;12.76;100.00
30636;BME280;17400;52.392;9.750;2023-05-24T11:49:49;101637.19;;;12.83;100.00
30636;BME280;17400;52.392;9.750;2023-05-24T11:52:17;101647.03;;;12.84;100.00
30636;BME280;17400;52.392;9.750;2023-05-24T11:54:45;101641.41;;;12.86;100.00
30636;BME280;17400;52.392;9.750;2023-05-24T11:57:13;101639.34;;;12.88;100.00
30636;BME280;17400;52.392;9.750;2023-05-24T11:59:42;101644.97;;;12.86;100.00
30636;BME280;17400;52.392;9.750;2023-05-24T12:02:09;101643.09;;;12.87;100.00
30636;BME280;17400;52.392;9.750;2023-05-24T12:04:39;101641.88;;;12.89;100.00
30636;BME280;17400;52.392;9.750;2023-05-24T12:07:09;101639.44;;;12.94;100.00
30636;BME280;17400;52.392;9.750;2023-05-24T12:09:38;101634.81;;;12.95;100.00
30636;BME280;17400;52.392;9.750;2023-05-24T12:12:06;101633.22;;;13.00;100.00
30636;BME280;17400;52.392;9.750;2023-05-24T12:14:34;101640.88;;;13.12;100.00
30636;BME280;17400;52.392;9.750;2023-05-24T12:17:02;101634.03;;;13.16;100.00
30636;BME280;17400;52.392;9.750;2023-05-24T12:19:31;101640.31;;;13.16;100.00
30636;BME280;17400;52.392;9.750;2023-05-24T12:22:04;101638.34;;;13.10;100.00
30636;BME280;17400;52.392;9.750;2023-05-24T12:24:33;101641.56;;;12.99;100.00
30636;BME280;17400;52.392;9.750;2023-05-24T12:27:02;101639.69;;;12.99;100.00
30636;BME280;17400;52.392;9.750;2023-05-24T12:29:33;101637.34;;;12.96;100.00
30636;BME280;17400;52.392;9.750;2023-05-24T12:32:02;101632.78;;;13.19;100.00
30636;BME280;17400;52.392;9.750;2023-05-24T12:34:31;101635.00;;;13.45;100.00
30636;BME280;17400;52.392;9.750;2023-05-24T12:36:59;101633.53;;;13.64;100.00
30636;BME280;17400;52.392;9.750;2023-05-24T12:39:29;101629.91;;;13.85;100.00
30636;BME280;17400;52.392;9.750;2023-05-24T12:42:00;101629.19;;;13.98;100.00
30636;BME280;17400;52.392;9.750;2023-05-24T12:44:33;101628.91;;;14.14;100.00
30636;BME280;17400;52.392;9.750;2023-05-24T12:47:02;101626.38;;;14.13;100.00
30636;BME280;17400;52.392;9.750;2023-05-24T12:49:30;101622.19;;;14.10;100.00
30636;BME280;17400;52.392;9.750;2023-05-24T12:51:58;101614.88;;;14.18;100.00